Time;durP1;ratioP1;P1;durP2;ratioP2;P2;SDS_P1;SDS_P2;PMS_P1;PMS_P2;Temp;Humidity;BMP_temperature;BMP_pressure;BME280_temperature;BME280_humidity;BME280_pressure;Samples;Min_cycle;Max_cycle;Signal;HPM_P1;HPM_P2
2023/09/24 00:01:22;;;;;;;8.85;3.92;;;15.00;79.30;;;;;;5035534;28;20453;-69
2023/09/24 00:03:49;;;;;;;7.45;3.97;;;15.00;79.30;;;;;;5034200;28;20034;-70
2023/09/24 00:06:16;;;;;;;8.38;3.78;;;15.00;79.30;;;;;;5034687;28;20045;-69
2023/09/24 00:08:41;;;;;;;7.53;3.90;;;14.90;79.20;;;;;;5017461;28;20032;-69
2023/09/24 00:11:08;;;;;;;8.25;3.92;;;14.90;79.80;;;;;;5033948;28;20465;-69
2023/09/24 00:13:35;;;;;;;9.07;3.40;;;14.90;79.10;;;;;;5034780;28;20432;-69
2023/09/24 00:16:06;;;;;;;7.13;3.88;;;14.90;79.10;;;;;;5033478;28;20351;-69
2023/09/24 00:18:35;;;;;;;7.25;3.83;;;14.90;79.10;;;;;;5034704;28;20147;-69
2023/09/24 00:21:01;;;;;;;7.82;3.45;;;14.80;79.00;;;;;;5048281;28;20021;-69
2023/09/24 00:23:30;;;;;;;9.27;4.18;;;14.80;79.00;;;;;;5034339;28;20025;-69
2023/09/24 00:25:56;;;;;;;8.48;3.95;;;14.80;79.00;;;;;;5049749;28;20068;-69
2023/09/24 00:28:25;;;;;;;8.63;4.55;;;14.70;78.90;;;;;;5032322;28;20025;-69
2023/09/24 00:30:55;;;;;;;7.93;4.13;;;14.70;78.90;;;;;;5033852;28;20026;-69
2023/09/24 00:33:21;;;;;;;7.25;3.92;;;14.70;78.90;;;;;;5040441;28;20108;-69
2023/09/24 00:35:48;;;;;;;7.78;3.83;;;14.70;78.90;;;;;;5042263;28;20029;-69
2023/09/24 00:38:13;;;;;;;8.35;4.30;;;14.70;78.90;;;;;;5032092;28;20120;-69
2023/09/24 00:40:39;;;;;;;8.65;4.30;;;14.70;78.90;;;;;;5034103;28;20105;-69
2023/09/24 00:43:27;;;;;;;9.27;3.80;;;14.70;78.90;;;;;;5046689;28;20032;-69
2023/09/24 00:45:57;;;;;;;7.22;3.92;;;14.60;78.70;;;;;;5026377;28;20036;-69
2023/09/24 00:48:28;;;;;;;7.07;3.30;;;14.60;78.80;;;;;;5031349;28;20151;-69
2023/09/24 00:50:58;;;;;;;7.53;3.55;;;14.60;78.80;;;;;;5034457;28;20037;-69
2023/09/24 00:53:29;;;;;;;7.13;3.70;;;14.60;78.80;;;;;;5033730;28;20030;-69
2023/09/24 00:55:58;;;;;;;8.43;4.03;;;14.60;78.80;;;;;;5033023;28;20037;-69
2023/09/24 00:58:28;;;;;;;9.30;4.30;;;14.50;78.80;;;;;;5032445;28;20108;-69
2023/09/24 01:00:57;;;;;;;7.40;3.50;;;14.50;78.80;;;;;;5036080;28;20052;-69
2023/09/24 01:03:23;;;;;;;7.75;4.03;;;14.50;78.70;;;;;;5048748;28;20041;-69
2023/09/24 01:05:53;;;;;;;6.60;3.97;;;14.50;78.70;;;;;;5028504;28;20034;-69
2023/09/24 01:08:20;;;;;;;8.38;4.15;;;14.50;78.70;;;;;;5047029;28;20022;-69
2023/09/24 01:10:50;;;;;;;8.95;4.10;;;14.50;78.70;;;;;;5044971;28;20426;-69
2023/09/24 01:13:20;;;;;;;8.32;3.85;;;14.50;78.70;;;;;;5032576;28;20029;-69
2023/09/24 01:15:50;;;;;;;7.57;3.88;;;14.40;78.60;;;;;;5050215;28;20048;-69
2023/09/24 01:18:20;;;;;;;7.00;3.88;;;14.40;78.60;;;;;;5031428;28;20021;-69
2023/09/24 01:20:46;;;;;;;7.95;3.90;;;14.40;78.60;;;;;;5032393;28;20053;-69
2023/09/24 01:23:14;;;;;;;8.02;4.25;;;14.40;78.60;;;;;;5033389;28;20029;-69
2023/09/24 01:25:40;;;;;;;8.90;4.03;;;14.40;78.60;;;;;;5039305;28;20116;-69
2023/09/24 01:28:07;;;;;;;7.97;4.38;;;14.40;78.60;;;;;;5030161;28;20458;-69
2023/09/24 01:30:34;;;;;;;7.40;3.90;;;14.30;78.50;;;;;;5033440;28;21619;-69
2023/09/24 01:33:01;;;;;;;7.85;3.80;;;14.30;78.50;;;;;;5032772;28;20048;-70
2023/09/24 01:35:32;;;;;;;9.45;4.18;;;14.30;78.50;;;;;;5032344;28;20113;-69
2023/09/24 01:38:00;;;;;;;7.65;4.15;;;14.30;78.40;;;;;;5025606;28;20033;-69
2023/09/24 01:40:27;;;;;;;7.57;3.90;;;14.30;78.40;;;;;;5032972;28;20036;-69
2023/09/24 01:42:58;;;;;;;10.88;4.57;;;14.30;78.40;;;;;;5032819;28;20014;-69
2023/09/24 01:45:25;;;;;;;8.55;4.20;;;14.20;78.40;;;;;;5031900;28;20029;-69
2023/09/24 01:47:51;;;;;;;9.15;4.25;;;14.20;78.40;;;;;;5049484;28;20029;-69
2023/09/24 01:50:17;;;;;;;8.80;4.05;;;14.20;78.40;;;;;;5031653;28;20148;-69
2023/09/24 01:52:46;;;;;;;8.20;4.30;;;14.20;78.40;;;;;;5033626;28;20029;-69
2023/09/24 01:55:15;;;;;;;8.68;3.88;;;14.10;78.30;;;;;;5031409;28;20022;-69
2023/09/24 01:57:42;;;;;;;7.95;4.00;;;14.10;78.30;;;;;;5024933;28;20546;-69
2023/09/24 02:00:12;;;;;;;9.15;4.43;;;14.10;78.30;;;;;;5035798;28;20351;-69
2023/09/24 02:02:41;;;;;;;6.85;3.80;;;14.10;78.30;;;;;;5044699;28;20359;-69
2023/09/24 02:05:09;;;;;;;7.57;4.10;;;14.10;78.50;;;;;;5031998;28;20026;-69
2023/09/24 02:07:37;;;;;;;9.13;4.22;;;14.10;78.30;;;;;;5049032;28;20120;-69
2023/09/24 02:10:05;;;;;;;10.07;4.40;;;14.10;78.20;;;;;;5030075;28;20108;-69
2023/09/24 02:12:36;;;;;;;8.45;4.18;;;14.00;78.20;;;;;;5033456;28;20053;-69
2023/09/24 02:15:05;;;;;;;;;;;14.00;78.10;;;;;;5048937;28;20021;-69
2023/09/24 02:17:32;;;;;;;7.07;3.72;;;14.00;78.20;;;;;;5036846;28;19913;-69
2023/09/24 02:19:58;;;;;;;9.82;4.07;;;14.00;78.30;;;;;;5034230;28;20026;-69
2023/09/24 02:22:24;;;;;;;8.05;4.15;;;13.90;78.20;;;;;;5028305;28;20017;-69
2023/09/24 02:24:50;;;;;;;7.35;4.10;;;13.90;78.20;;;;;;5034590;28;20336;-69
2023/09/24 02:27:15;;;;;;;9.02;4.47;;;13.90;78.10;;;;;;5052875;28;20153;-69
2023/09/24 02:29:41;;;;;;;10.25;4.63;;;13.90;78.10;;;;;;5034971;28;20451;-69
2023/09/24 02:32:07;;;;;;;8.52;4.82;;;13.90;78.10;;;;;;5035172;28;20037;-69
2023/09/24 02:34:33;;;;;;;10.32;4.75;;;13.90;78.10;;;;;;5036582;28;20026;-69
2023/09/24 02:36:59;;;;;;;8.15;3.97;;;13.90;78.10;;;;;;5035850;28;20036;-70
2023/09/24 02:39:24;;;;;;;10.25;4.75;;;13.90;78.00;;;;;;5051578;28;20036;-69
2023/09/24 02:41:50;;;;;;;11.93;4.68;;;13.90;78.00;;;;;;5035332;28;20038;-69
2023/09/24 02:44:17;;;;;;;8.15;4.15;;;13.80;77.90;;;;;;5035050;28;20053;-69
2023/09/24 02:46:44;;;;;;;7.03;4.13;;;13.80;77.90;;;;;;5035479;28;20112;-69
2023/09/24 02:49:10;;;;;;;9.02;4.85;;;13.80;77.90;;;;;;5035454;28;20030;-69
2023/09/24 02:51:36;;;;;;;9.60;4.85;;;13.80;77.90;;;;;;5035649;28;20021;-69
2023/09/24 02:54:01;;;;;;;9.43;4.95;;;13.80;77.80;;;;;;5035655;28;20351;-69
2023/09/24 02:56:28;;;;;;;9.07;4.70;;;13.80;77.80;;;;;;5030766;28;20025;-69
2023/09/24 02:58:55;;;;;;;9.68;4.40;;;13.70;77.80;;;;;;5036843;28;20041;-69
2023/09/24 03:01:20;;;;;;;9.15;4.85;;;13.70;77.80;;;;;;5049589;28;20049;-69
2023/09/24 03:03:46;;;;;;;9.88;5.25;;;13.70;77.80;;;;;;5035516;28;20118;-69
2023/09/24 03:06:13;;;;;;;9.40;5.63;;;13.70;77.80;;;;;;5050567;28;20063;-69
2023/09/24 03:08:39;;;;;;;9.93;4.72;;;13.70;77.80;;;;;;5052055;28;20029;-69
2023/09/24 03:11:16;;;;;;;10.43;4.63;;;13.60;77.70;;;;;;5033939;28;20136;-69
2023/09/24 03:13:42;;;;;;;8.32;4.70;;;13.60;77.70;;;;;;5031799;28;20159;-69
2023/09/24 03:16:08;;;;;;;8.95;4.32;;;13.60;77.70;;;;;;5032062;28;20053;-69
2023/09/24 03:18:35;;;;;;;9.77;5.22;;;13.60;77.70;;;;;;5033208;28;20033;-69
2023/09/24 03:21:04;;;;;;;11.52;5.10;;;13.50;77.60;;;;;;5034599;28;20454;-69
2023/09/24 03:23:30;;;;;;;11.63;4.97;;;13.50;77.70;;;;;;5051779;28;20057;-69
2023/09/24 03:25:56;;;;;;;8.65;4.70;;;13.50;77.60;;;;;;5040001;28;20060;-68
2023/09/24 03:28:23;;;;;;;9.40;4.80;;;13.50;77.60;;;;;;5033814;28;20033;-69
2023/09/24 03:30:48;;;;;;;10.07;4.90;;;13.50;77.60;;;;;;5037867;28;20043;-69
2023/09/24 03:33:15;;;;;;;9.57;4.70;;;13.50;77.60;;;;;;5032045;28;20389;-69
2023/09/24 03:35:41;;;;;;;9.77;4.88;;;13.50;77.60;;;;;;5038086;28;20021;-69
2023/09/24 03:38:07;;;;;;;8.95;4.80;;;13.50;77.60;;;;;;5031142;28;20099;-69
2023/09/24 03:40:34;;;;;;;10.85;5.03;;;13.40;77.60;;;;;;5035658;28;20036;-69
2023/09/24 03:43:00;;;;;;;10.52;4.85;;;13.40;77.60;;;;;;5039521;28;20035;-69
2023/09/24 03:45:26;;;;;;;8.35;4.68;;;13.40;77.50;;;;;;5048619;28;20037;-69
2023/09/24 03:47:52;;;;;;;7.85;4.45;;;13.40;77.50;;;;;;5045575;28;20493;-69
2023/09/24 03:50:18;;;;;;;11.15;5.03;;;13.40;77.50;;;;;;5032802;28;20093;-69
2023/09/24 03:52:48;;;;;;;10.18;5.15;;;13.40;77.50;;;;;;5049979;28;20041;-69
2023/09/24 03:55:16;;;;;;;8.48;5.30;;;13.40;77.50;;;;;;5034870;28;21025;-69
2023/09/24 03:57:42;;;;;;;8.77;5.18;;;13.40;77.50;;;;;;5044526;28;20120;-69
2023/09/24 04:00:13;;;;;;;9.68;5.00;;;13.30;77.40;;;;;;5048214;28;20469;-69
2023/09/24 04:02:39;;;;;;;8.77;5.07;;;13.30;77.40;;;;;;5036137;28;20491;-69
2023/09/24 04:05:09;;;;;;;9.05;5.45;;;13.30;77.40;;;;;;5041778;28;20021;-69
2023/09/24 04:07:38;;;;;;;9.77;5.30;;;13.30;77.40;;;;;;5047947;28;20033;-69
2023/09/24 04:10:05;;;;;;;7.75;4.15;;;13.30;77.40;;;;;;5036344;28;20033;-69
2023/09/24 04:12:34;;;;;;;9.48;4.82;;;13.30;77.40;;;;;;5044809;28;20054;-69
2023/09/24 04:15:04;;;;;;;8.85;5.03;;;13.30;77.40;;;;;;5038330;28;20417;-68
2023/09/24 04:17:31;;;;;;;8.32;4.80;;;13.30;78.00;;;;;;5028307;28;20121;-68
2023/09/24 04:19:58;;;;;;;9.55;4.93;;;13.20;77.90;;;;;;5031756;28;20061;-68
2023/09/24 04:22:24;;;;;;;10.13;5.75;;;13.20;77.30;;;;;;5036639;28;20033;-68
2023/09/24 04:24:56;;;;;;;10.30;4.80;;;13.20;77.30;;;;;;5027644;28;20087;-68
2023/09/24 04:27:22;;;;;;;9.05;4.72;;;13.20;77.30;;;;;;5037417;28;20040;-68
2023/09/24 04:29:48;;;;;;;10.70;5.40;;;13.20;77.30;;;;;;5029956;28;20077;-68
2023/09/24 04:32:15;;;;;;;8.50;4.85;;;13.10;77.30;;;;;;5038008;28;20033;-68
2023/09/24 04:34:41;;;;;;;10.80;5.07;;;13.10;77.30;;;;;;5033740;28;20485;-68
2023/09/24 04:37:07;;;;;;;9.48;5.53;;;13.10;77.30;;;;;;5029386;28;20040;-68
2023/09/24 04:39:33;;;;;;;11.20;5.13;;;13.10;77.30;;;;;;5033629;28;20025;-68
2023/09/24 04:41:59;;;;;;;7.85;4.43;;;13.10;77.30;;;;;;5026792;28;20021;-68
2023/09/24 04:44:24;;;;;;;10.15;4.78;;;13.10;77.30;;;;;;5028940;28;20462;-69
2023/09/24 04:46:51;;;;;;;9.98;5.65;;;13.10;77.20;;;;;;5032189;28;20030;-69
2023/09/24 04:49:17;;;;;;;9.45;5.45;;;13.00;77.10;;;;;;5035771;28;20070;-69
2023/09/24 04:51:42;;;;;;;8.48;5.35;;;13.00;77.10;;;;;;5034495;28;20031;-69
2023/09/24 04:54:08;;;;;;;8.13;5.10;;;13.00;77.10;;;;;;5030137;28;20017;-69
2023/09/24 04:56:34;;;;;;;12.50;4.93;;;13.00;77.10;;;;;;5032466;28;20548;-68
2023/09/24 04:59:00;;;;;;;9.73;5.43;;;13.00;77.10;;;;;;5048368;28;20025;-68
2023/09/24 05:01:26;;;;;;;9.45;5.10;;;13.00;77.10;;;;;;5032942;28;20034;-69
2023/09/24 05:03:53;;;;;;;9.70;5.20;;;13.00;77.10;;;;;;5047484;28;20048;-68
2023/09/24 05:06:19;;;;;;;10.18;5.40;;;12.90;77.00;;;;;;5033395;28;20048;-68
2023/09/24 05:08:45;;;;;;;9.60;5.30;;;13.00;77.10;;;;;;5034318;28;20466;-68
2023/09/24 05:11:12;;;;;;;9.50;4.93;;;12.90;77.00;;;;;;5033980;28;20049;-68
2023/09/24 05:13:38;;;;;;;8.65;4.97;;;12.90;77.00;;;;;;5030941;28;20057;-68
2023/09/24 05:16:04;;;;;;;8.32;4.60;;;12.90;77.00;;;;;;5032524;28;20056;-68
2023/09/24 05:18:33;;;;;;;8.93;5.38;;;12.90;77.00;;;;;;5032407;28;20029;-68
2023/09/24 05:20:58;;;;;;;8.30;4.90;;;12.90;77.00;;;;;;5034190;28;20167;-68
2023/09/24 05:23:25;;;;;;;9.15;5.28;;;12.90;77.00;;;;;;5032853;28;20532;-68
2023/09/24 05:25:53;;;;;;;10.02;5.40;;;12.80;76.90;;;;;;5033252;28;20018;-68
2023/09/24 05:28:19;;;;;;;8.70;5.13;;;12.80;76.90;;;;;;5032367;28;20086;-68
2023/09/24 05:30:53;;;;;;;9.02;5.10;;;12.80;76.90;;;;;;5033964;28;20116;-69
2023/09/24 05:33:18;;;;;;;10.55;5.22;;;12.80;76.80;;;;;;5031775;28;20029;-68
2023/09/24 05:35:49;;;;;;;10.00;5.10;;;12.80;76.90;;;;;;5015924;28;20044;-68
2023/09/24 05:38:15;;;;;;;10.07;5.53;;;12.80;76.90;;;;;;5044770;28;20033;-68
2023/09/24 05:40:41;;;;;;;9.93;5.60;;;12.80;76.90;;;;;;5049557;28;20451;-68
2023/09/24 05:43:07;;;;;;;10.07;5.00;;;12.80;77.00;;;;;;5032744;28;20108;-68
2023/09/24 05:45:32;;;;;;;10.18;5.00;;;12.80;77.60;;;;;;5045938;28;20030;-68
2023/09/24 05:47:58;;;;;;;7.88;5.05;;;12.80;76.90;;;;;;5029151;28;20033;-67
2023/09/24 05:50:24;;;;;;;9.80;5.00;;;12.80;76.90;;;;;;5035096;28;20029;-67
2023/09/24 05:52:49;;;;;;;9.63;5.00;;;12.80;77.00;;;;;;5034555;28;20472;-67
2023/09/24 05:55:15;;;;;;;10.50;5.32;;;12.80;77.00;;;;;;5017266;28;20083;-67
2023/09/24 05:57:41;;;;;;;8.05;4.63;;;12.80;77.00;;;;;;5035517;28;20036;-68
2023/09/24 06:00:08;;;;;;;10.63;5.47;;;12.80;77.00;;;;;;5036124;28;20116;-69
2023/09/24 06:02:42;;;;;;;9.18;5.03;;;12.80;77.00;;;;;;5035527;28;20030;-69
2023/09/24 06:05:09;;;;;;;9.45;5.10;;;12.80;77.00;;;;;;5037869;28;20022;-68
2023/09/24 06:07:35;;;;;;;7.88;4.78;;;12.80;77.70;;;;;;5037055;28;20044;-67
2023/09/24 06:10:04;;;;;;;8.90;5.18;;;12.80;77.10;;;;;;5036426;28;20128;-67
2023/09/24 06:12:31;;;;;;;9.93;5.00;;;12.80;77.20;;;;;;5053475;28;20128;-68
2023/09/24 06:14:57;;;;;;;9.38;5.15;;;12.80;77.20;;;;;;5038108;28;20057;-68
2023/09/24 06:17:23;;;;;;;10.45;5.78;;;12.90;77.30;;;;;;5053194;28;20064;-68
2023/09/24 06:19:48;;;;;;;9.95;5.63;;;12.90;77.40;;;;;;5044299;28;20030;-68
2023/09/24 06:22:14;;;;;;;10.15;5.80;;;12.90;77.50;;;;;;5036336;28;20069;-68
2023/09/24 06:24:40;;;;;;;10.10;5.75;;;13.00;77.60;;;;;;5035641;28;20022;-69
2023/09/24 06:27:05;;;;;;;9.15;5.00;;;13.00;77.60;;;;;;5049433;28;20076;-69
2023/09/24 06:29:35;;;;;;;10.23;5.95;;;13.00;77.70;;;;;;5028924;28;20021;-68
2023/09/24 06:32:01;;;;;;;10.88;6.10;;;13.10;77.80;;;;;;5036433;28;20027;-69
2023/09/24 06:34:27;;;;;;;12.30;6.72;;;13.10;77.80;;;;;;5052997;28;20024;-68
2023/09/24 06:36:53;;;;;;;10.73;6.50;;;13.20;77.80;;;;;;5035963;28;20068;-68
2023/09/24 06:39:19;;;;;;;9.75;5.72;;;13.30;77.80;;;;;;5035899;28;20044;-67
2023/09/24 06:41:44;;;;;;;9.88;5.85;;;13.40;77.60;;;;;;5032216;28;20512;-71
2023/09/24 06:44:11;;;;;;;9.40;5.55;;;13.40;77.60;;;;;;5034745;28;20045;-69
2023/09/24 06:46:37;;;;;;;11.82;6.20;;;13.50;77.60;;;;;;5032458;28;20133;-69
2023/09/24 06:49:02;;;;;;;10.32;6.70;;;13.60;77.60;;;;;;5034049;28;20108;-68
2023/09/24 06:51:28;;;;;;;11.48;5.97;;;13.70;77.60;;;;;;5030680;28;20055;-68
2023/09/24 06:53:54;;;;;;;9.65;5.25;;;13.80;77.60;;;;;;5030736;28;20040;-68
2023/09/24 06:56:19;;;;;;;14.30;5.93;;;13.80;77.60;;;;;;5031029;28;20039;-68
2023/09/24 06:58:45;;;;;;;8.57;5.53;;;13.80;77.60;;;;;;5031257;28;20025;-68
2023/09/24 07:01:11;;;;;;;12.73;6.70;;;13.90;77.70;;;;;;5031571;28;20453;-69
2023/09/24 07:03:37;;;;;;;9.45;5.82;;;13.90;77.60;;;;;;5046220;28;20029;-69
2023/09/24 07:06:05;;;;;;;11.25;6.47;;;14.00;77.70;;;;;;5032765;28;20032;-70
2023/09/24 07:08:33;;;;;;;11.57;7.20;;;14.00;77.60;;;;;;5034408;28;20104;-70
2023/09/24 07:11:32;;;;;;;10.07;6.65;;;14.10;77.70;;;;;;5036757;28;20037;-71
2023/09/24 07:13:58;;;;;;;10.45;5.90;;;14.10;77.60;;;;;;5036498;28;20033;-69
2023/09/24 07:16:26;;;;;;;9.98;6.10;;;14.20;77.60;;;;;;5035131;28;20043;-68
2023/09/24 07:18:53;;;;;;;9.88;5.13;;;14.30;77.50;;;;;;5032375;28;20048;-68
2023/09/24 07:21:25;;;;;;;10.02;5.20;;;14.30;77.40;;;;;;5033422;28;20036;-69
2023/09/24 07:23:52;;;;;;;10.43;5.93;;;14.40;77.40;;;;;;5018904;28;20032;-69
2023/09/24 07:26:19;;;;;;;9.88;5.70;;;14.50;77.40;;;;;;5036313;28;20032;-70
2023/09/24 07:28:45;;;;;;;9.60;5.50;;;14.50;77.20;;;;;;5034769;28;20037;-69
2023/09/24 07:31:14;;;;;;;8.77;5.47;;;14.60;77.00;;;;;;5031702;28;20037;-70
2023/09/24 07:33:44;;;;;;;9.93;5.43;;;14.70;76.90;;;;;;5033091;28;20580;-69
2023/09/24 07:36:11;;;;;;;11.18;5.88;;;14.80;76.60;;;;;;5035556;28;20034;-68
2023/09/24 07:38:37;;;;;;;9.48;5.30;;;14.90;76.30;;;;;;5043198;28;20120;-68
2023/09/24 07:41:02;;;;;;;9.38;5.35;;;14.90;76.10;;;;;;5035596;28;20127;-68
2023/09/24 07:43:28;;;;;;;9.98;5.50;;;15.00;76.10;;;;;;5035575;28;20116;-68
2023/09/24 07:45:54;;;;;;;8.02;5.13;;;15.00;76.00;;;;;;5035474;28;20022;-68
2023/09/24 07:48:20;;;;;;;9.57;5.10;;;15.10;76.00;;;;;;5036120;28;20056;-68
2023/09/24 07:50:58;;;;;;;13.55;5.40;;;15.20;75.80;;;;;;5031145;28;20386;-68
2023/09/24 07:53:24;;;;;;;8.18;4.78;;;15.40;75.70;;;;;;5034677;28;20033;-68
2023/09/24 07:56:07;;;;;;;10.13;4.80;;;15.60;75.30;;;;;;5036283;28;20092;-69
2023/09/24 07:58:34;;;;;;;10.60;4.78;;;15.80;74.80;;;;;;5036006;28;20466;-68
2023/09/24 08:01:04;;;;;;;9.57;4.65;;;16.00;74.30;;;;;;5035183;28;20430;-69
2023/09/24 08:03:34;;;;;;;8.77;4.43;;;16.30;73.80;;;;;;5034324;28;20028;-68
2023/09/24 08:06:01;;;;;;;8.65;4.20;;;16.40;73.40;;;;;;5042803;28;20272;-68
2023/09/24 08:08:27;;;;;;;8.95;4.65;;;16.60;72.90;;;;;;5035600;28;20037;-68
2023/09/24 08:10:53;;;;;;;9.07;4.57;;;16.80;72.40;;;;;;5050448;28;20045;-69
2023/09/24 08:13:19;;;;;;;7.70;4.03;;;17.00;72.10;;;;;;5025886;28;20345;-69
2023/09/24 08:15:46;;;;;;;9.43;5.10;;;17.10;71.80;;;;;;5033845;28;20048;-69
2023/09/24 08:18:12;;;;;;;8.02;3.83;;;17.10;71.60;;;;;;5029519;28;20377;-70
2023/09/24 08:20:41;;;;;;;9.85;4.22;;;17.20;71.60;;;;;;5032963;28;20024;-69
2023/09/24 08:23:07;;;;;;;7.93;3.72;;;17.40;71.40;;;;;;5028709;28;20087;-69
2023/09/24 08:25:34;;;;;;;8.05;3.53;;;17.50;71.00;;;;;;5045748;28;20097;-69
2023/09/24 08:28:00;;;;;;;9.25;3.92;;;17.70;70.80;;;;;;5030186;28;20121;-69
2023/09/24 08:30:32;;;;;;;8.25;4.35;;;17.80;70.30;;;;;;5029528;28;20025;-69
2023/09/24 08:32:59;;;;;;;7.97;3.22;;;18.00;69.90;;;;;;5026656;28;20037;-69
2023/09/24 08:35:25;;;;;;;7.35;3.60;;;18.10;69.50;;;;;;5030622;28;20102;-69
2023/09/24 08:37:51;;;;;;;7.90;3.78;;;18.30;68.90;;;;;;5030538;28;20021;-69
2023/09/24 08:40:18;;;;;;;6.72;2.95;;;18.50;68.60;;;;;;5027959;28;20025;-68
2023/09/24 08:42:50;;;;;;;8.88;3.33;;;18.60;68.40;;;;;;5042432;28;20467;-67
2023/09/24 08:45:19;;;;;;;5.75;2.83;;;18.80;68.10;;;;;;5028780;28;20025;-67
2023/09/24 08:47:47;;;;;;;6.25;2.95;;;19.00;68.00;;;;;;5027744;28;20420;-68
2023/09/24 08:50:15;;;;;;;7.43;3.08;;;19.00;67.60;;;;;;5043002;28;20108;-67
2023/09/24 08:52:44;;;;;;;7.97;3.15;;;19.20;67.30;;;;;;5029504;28;20040;-66
2023/09/24 08:55:11;;;;;;;8.13;3.15;;;19.30;66.80;;;;;;5042610;28;20037;-65
2023/09/24 08:57:42;;;;;;;8.10;3.08;;;19.50;66.50;;;;;;5028734;28;20029;-66
2023/09/24 09:00:11;;;;;;;6.75;3.45;;;19.60;66.30;;;;;;5028356;28;20113;-66
2023/09/24 09:02:41;;;;;;;6.53;2.70;;;19.70;65.90;;;;;;5029038;28;20038;-67
2023/09/24 09:05:21;;;;;;;6.60;2.70;;;19.80;65.70;;;;;;5029361;28;20065;-67
2023/09/24 09:08:01;;;;;;;6.78;2.88;;;19.90;65.20;;;;;;5027511;28;20060;-66
2023/09/24 09:10:35;;;;;;;6.38;2.88;;;20.10;64.70;;;;;;5030922;28;20350;-66
2023/09/24 09:13:08;;;;;;;5.80;2.40;;;20.20;64.40;;;;;;5027360;28;20029;-67
2023/09/24 09:15:39;;;;;;;7.47;2.83;;;20.30;64.10;;;;;;5026519;28;20038;-67
2023/09/24 09:18:06;;;;;;;6.95;2.50;;;20.30;63.80;;;;;;5029917;28;20120;-67
2023/09/24 09:21:01;;;;;;;6.25;2.22;;;20.40;63.60;;;;;;5026654;28;20044;-67
2023/09/24 09:23:45;;;;;;;7.18;2.10;;;20.60;63.50;;;;;;5028253;28;20027;-67
2023/09/24 09:26:11;;;;;;;5.47;1.75;;;20.60;63.00;;;;;;5017878;28;20025;-68
2023/09/24 09:28:36;;;;;;;5.38;2.10;;;20.70;62.50;;;;;;5025901;28;20033;-67
2023/09/24 09:31:12;;;;;;;5.43;1.73;;;20.70;62.00;;;;;;5029656;28;20033;-66
2023/09/24 09:33:45;;;;;;;7.18;1.92;;;20.70;61.70;;;;;;5030425;28;20036;-68
2023/09/24 09:36:24;;;;;;;7.43;2.10;;;20.80;61.60;;;;;;5032797;28;20307;-68
2023/09/24 09:38:52;;;;;;;3.42;1.60;;;20.90;61.00;;;;;;5029777;28;20049;-67
2023/09/24 09:41:18;;;;;;;5.28;1.70;;;20.90;61.10;;;;;;5038280;28;20025;-68
2023/09/24 09:43:49;;;;;;;6.57;2.08;;;21.00;61.10;;;;;;5030292;28;20108;-68
2023/09/24 09:46:20;;;;;;;5.40;1.73;;;21.10;60.90;;;;;;5029222;28;20079;-68
2023/09/24 09:48:56;;;;;;;6.72;2.10;;;21.20;60.50;;;;;;5031429;28;20036;-68
2023/09/24 09:51:24;;;;;;;6.15;2.17;;;21.30;60.20;;;;;;5025690;28;20030;-68
2023/09/24 09:53:52;;;;;;;6.63;2.33;;;21.40;59.80;;;;;;5025392;28;20033;-68
2023/09/24 09:56:19;;;;;;;5.00;1.88;;;21.40;59.70;;;;;;5038823;28;22475;-68
2023/09/24 09:58:48;;;;;;;6.07;2.33;;;21.40;59.50;;;;;;5030894;28;20025;-68
2023/09/24 10:01:18;;;;;;;5.03;1.83;;;21.50;59.20;;;;;;5012882;28;20068;-68
2023/09/24 10:03:45;;;;;;;7.22;2.05;;;21.60;59.30;;;;;;5029536;28;20052;-68
2023/09/24 10:06:12;;;;;;;4.40;1.95;;;21.60;58.90;;;;;;5012540;28;20792;-68
2023/09/24 10:08:39;;;;;;;7.32;2.17;;;21.60;58.70;;;;;;5030575;28;20037;-68
2023/09/24 10:11:05;;;;;;;7.32;2.30;;;21.60;58.40;;;;;;5027088;28;20050;-68
2023/09/24 10:13:43;;;;;;;4.78;1.90;;;21.60;58.40;;;;;;5026481;28;20025;-68
2023/09/24 10:16:27;;;;;;;5.88;2.13;;;21.60;58.00;;;;;;5026546;28;20041;-69
2023/09/24 10:19:19;;;;;;;8.65;1.95;;;21.60;58.50;;;;;;5042995;28;20025;-68
2023/09/24 10:21:45;;;;;;;5.18;1.55;;;21.60;58.60;;;;;;5039986;28;20049;-68
2023/09/24 10:24:14;;;;;;;4.80;1.55;;;21.60;58.50;;;;;;5024865;28;20030;-68
2023/09/24 10:27:05;;;;;;;4.00;1.42;;;21.70;58.20;;;;;;5031542;28;20342;-68
2023/09/24 10:29:46;;;;;;;5.78;1.45;;;21.60;57.80;;;;;;5044592;28;20017;-68
2023/09/24 10:32:17;;;;;;;6.07;1.45;;;21.70;57.90;;;;;;5022674;28;20112;-68
2023/09/24 10:34:55;;;;;;;6.20;1.65;;;21.70;58.60;;;;;;5039016;28;20029;-69
2023/09/24 10:37:25;;;;;;;5.68;1.65;;;21.70;57.70;;;;;;5032350;28;20351;-68
2023/09/24 10:42:27;;;;;;;5.80;1.83;;;21.90;57.60;;;;;;5029997;28;20044;-68
2023/09/24 10:45:12;;;;;;;5.07;1.65;;;21.90;57.40;;;;;;5045203;28;20025;-68
2023/09/24 10:47:42;;;;;;;6.10;1.67;;;22.00;57.20;;;;;;5029824;28;20041;-68
2023/09/24 10:50:21;;;;;;;4.80;1.45;;;22.00;56.80;;;;;;5031031;28;20108;-68
2023/09/24 10:52:50;;;;;;;5.28;1.58;;;22.00;56.40;;;;;;5031146;28;20017;-69
2023/09/24 10:55:17;;;;;;;3.30;1.48;;;22.10;56.40;;;;;;5030053;28;20072;-68
2023/09/24 10:57:46;;;;;;;5.65;1.50;;;22.10;56.20;;;;;;5029646;28;20083;-68
2023/09/24 11:00:17;;;;;;;5.10;1.58;;;22.10;55.90;;;;;;5031808;28;20079;-67
2023/09/24 11:02:44;;;;;;;4.63;1.70;;;22.20;55.90;;;;;;5046320;28;21693;-68
2023/09/24 11:05:10;;;;;;;5.05;1.70;;;22.20;56.00;;;;;;5031974;28;20079;-68
2023/09/24 11:07:36;;;;;;;4.50;1.45;;;22.30;55.60;;;;;;5030984;28;20071;-67
2023/09/24 11:10:01;;;;;;;5.38;1.60;;;22.30;55.70;;;;;;5046948;28;20061;-68
2023/09/24 11:12:27;;;;;;;4.55;1.42;;;22.30;55.40;;;;;;5021943;28;20057;-67
2023/09/24 11:14:57;;;;;;;4.68;1.60;;;22.30;55.40;;;;;;5047115;28;20064;-67
2023/09/24 11:17:24;;;;;;;6.28;1.60;;;22.30;55.20;;;;;;5030840;28;20052;-67
2023/09/24 11:19:50;;;;;;;4.53;1.60;;;22.40;55.50;;;;;;5031590;28;20128;-67
2023/09/24 11:22:20;;;;;;;4.50;1.45;;;22.40;55.40;;;;;;5024271;28;20442;-67
2023/09/24 11:24:50;;;;;;;4.35;1.63;;;22.50;55.50;;;;;;5027870;28;20036;-67
2023/09/24 11:27:18;;;;;;;5.03;1.60;;;22.50;55.20;;;;;;5043747;28;20085;-71
2023/09/24 11:30:00;;;;;;;3.03;1.42;;;22.40;55.10;;;;;;5030446;28;20120;-67
2023/09/24 11:32:27;;;;;;;5.35;1.60;;;22.30;54.80;;;;;;5030493;28;20500;-66
2023/09/24 11:35:11;;;;;;;4.53;1.50;;;22.30;54.80;;;;;;5032067;28;20410;-66
2023/09/24 11:37:48;;;;;;;4.32;1.27;;;22.20;54.70;;;;;;5031851;28;20037;-67
2023/09/24 11:40:29;;;;;;;4.20;1.67;;;22.30;54.90;;;;;;5030726;28;20049;-66
2023/09/24 11:43:00;;;;;;;5.85;1.42;;;22.30;54.80;;;;;;5029178;28;20473;-69
2023/09/24 11:45:46;;;;;;;6.35;1.40;;;22.30;55.00;;;;;;5031809;28;20038;-66
2023/09/24 11:48:32;;;;;;;3.63;1.27;;;22.40;54.80;;;;;;5030577;28;20037;-66
2023/09/24 11:51:01;;;;;;;5.43;1.50;;;22.40;54.50;;;;;;5031754;28;20045;-66
2023/09/24 11:53:27;;;;;;;5.30;1.65;;;22.40;54.20;;;;;;5025241;28;20037;-66
2023/09/24 11:55:57;;;;;;;4.85;1.33;;;22.30;54.40;;;;;;5030099;28;20443;-66
2023/09/24 11:58:28;;;;;;;6.18;1.63;;;22.30;54.40;;;;;;5031149;28;20328;-66
2023/09/24 12:00:58;;;;;;;4.68;1.52;;;22.30;54.30;;;;;;5029612;28;20026;-67
2023/09/24 12:03:24;;;;;;;3.95;1.35;;;22.20;54.30;;;;;;5029618;28;20029;-66
2023/09/24 12:05:51;;;;;;;4.55;1.50;;;22.10;55.00;;;;;;5030656;28;20044;-67
2023/09/24 12:08:17;;;;;;;4.43;1.40;;;22.10;54.30;;;;;;5032227;28;20036;-66
2023/09/24 12:10:47;;;;;;;3.95;1.42;;;22.10;54.30;;;;;;5034310;28;20029;-67
2023/09/24 12:13:15;;;;;;;5.00;1.63;;;22.00;53.90;;;;;;5034614;28;20044;-66
2023/09/24 12:15:41;;;;;;;5.57;1.40;;;21.90;53.80;;;;;;5034069;28;20033;-67
2023/09/24 12:18:08;;;;;;;3.40;1.13;;;21.90;54.00;;;;;;5033139;28;20029;-66
2023/09/24 12:20:35;;;;;;;3.85;1.10;;;21.80;54.20;;;;;;5034692;28;20029;-66
2023/09/24 12:23:04;;;;;;;4.10;1.38;;;21.80;54.30;;;;;;5029411;28;20057;-66
2023/09/24 12:25:30;;;;;;;4.80;1.40;;;21.80;54.20;;;;;;5031827;28;20095;-67
2023/09/24 12:27:56;;;;;;;4.72;1.70;;;21.80;53.80;;;;;;5033165;28;20109;-66
2023/09/24 12:30:23;;;;;;;4.25;1.60;;;21.70;53.70;;;;;;5040814;28;20025;-67
2023/09/24 12:32:49;;;;;;;4.65;1.48;;;21.60;53.70;;;;;;5032314;28;20370;-67
2023/09/24 12:35:14;;;;;;;3.85;1.13;;;21.50;54.00;;;;;;5031904;28;20037;-67
2023/09/24 12:37:41;;;;;;;5.53;1.52;;;21.50;54.00;;;;;;5030290;28;20026;-67
2023/09/24 12:40:10;;;;;;;5.40;1.48;;;21.50;54.20;;;;;;5034176;28;20087;-67
2023/09/24 12:42:37;;;;;;;4.68;1.30;;;21.50;53.90;;;;;;5033827;28;20056;-67
2023/09/24 12:45:04;;;;;;;4.97;1.75;;;21.50;53.80;;;;;;5034229;28;20036;-67
2023/09/24 12:47:33;;;;;;;3.58;1.30;;;21.50;53.80;;;;;;5035181;28;20037;-67
2023/09/24 12:50:01;;;;;;;5.63;1.40;;;21.40;53.60;;;;;;5035194;28;20108;-67
2023/09/24 12:52:33;;;;;;;4.53;1.48;;;21.30;53.70;;;;;;5049758;28;20033;-67
2023/09/24 12:55:03;;;;;;;4.38;1.48;;;21.20;54.00;;;;;;5034933;28;20361;-67